• Join FlightAware (Why Join?)
  • Login
  • US Flag 
09:53AM EDT


 

Airport Tracker/Info


-or-


 

Live Flight TrackerFlight Track Log ✈ AMX526 ✈ 19-May-2013 ✈ MMMD / MID - MMMX / MEX

Flight Track Log - Related Links

Times and Time Zones

All times are in EDT time to prevent confusion due to time zone crossing. See the AMX526 flight status page for this flight to view local times or setup timezone preferences in your user account.

Time Position Orientation Groundspeed Altitude Reporting Facility
EDT Latitude Longitude Course Direction KTS MPH feet Rate Location/Type
08:49PM 20.7771 -90.8445 262° West  Level Estimated
08:50PM 20.7635 -90.9432 262° West  Level Estimated
08:51PM 20.7497 -91.0420 262° West  Level Estimated
08:52PM 20.7359 -91.1407 262° West  Level Estimated
08:53PM 20.7221 -91.2395 261° West  Level Estimated
08:54PM 20.7082 -91.3382 261° West  Level Estimated
08:55PM 20.6942 -91.4369 261° West  Level Estimated
08:56PM 20.6801 -91.5356 261° West  Level Estimated
08:57PM 20.6661 -91.6342 261° West  Level Estimated
08:58PM 20.6519 -91.7329 261° West  Level Estimated
08:59PM 20.6377 -91.8315 261° West  Level Estimated
09:00PM 20.6235 -91.9301 261° West  Level Estimated
09:01PM 20.6092 -92.0287 261° West  Level Estimated
09:02PM 20.5948 -92.1272 261° West  Level Estimated
09:03PM 20.5804 -92.2258 261° West  Level Estimated
09:04PM 20.5659 -92.3243 261° West  Level Estimated
09:05PM 20.5514 -92.4228 261° West  Level Estimated
09:06PM 20.5368 -92.5213 261° West  Level Estimated
09:07PM 20.5222 -92.6198 261° West  Level Estimated
09:08PM 20.5075 -92.7182 261° West  Level Estimated
09:09PM 20.4927 -92.8167 261° West  Level Estimated
09:10PM 20.4779 -92.9151 261° West  Level Estimated
09:11PM 20.4631 -93.0135 261° West  Level Estimated
09:12PM 20.4481 -93.1118 261° West  Level Estimated
09:13PM 20.4332 -93.2102 261° West  Level Estimated
09:14PM 20.4181 -93.3085 261° West  Level Estimated
09:15PM 20.4031 -93.4069 261° West  Level Estimated
09:16PM 20.3879 -93.5052 261° West  Level Estimated
09:17PM 20.3727 -93.6034 261° West  Level Estimated
09:18PM 20.3575 -93.7017 261° West  Level Estimated
09:19PM 20.3422 -93.7999 261° West  Level Estimated
09:20PM 20.3268 -93.8982 261° West  Level Estimated
09:21PM 20.3114 -93.9964 261° West  Level Estimated
09:22PM 20.2959 -94.0945 260° West  Level Estimated
09:23PM 20.2804 -94.1927 260° West  Level Estimated
09:24PM 20.2648 -94.2908 260° West  Level Estimated
09:25PM 20.2492 -94.3890 260° West  Level Estimated
09:26PM 20.2335 -94.4871 260° West  Level Estimated
09:27PM 20.2178 -94.5851 260° West  Level Estimated
09:28PM 20.2020 -94.6832 260° West  Level Estimated
09:29PM 20.1861 -94.7812 260° West  Level Estimated
09:30PM 20.1702 -94.8793 260° West  Level Estimated
09:31PM 20.1543 -94.9773 260° West  Level Estimated
09:32PM 20.1383 -95.0752 260° West  Level Estimated
09:33PM 20.1222 -95.1732 260° West  Level Estimated
09:34PM 20.1061 -95.2711 260° West  Level Estimated
09:35PM 20.0899 -95.3691 260° West  Level Estimated
09:36PM 20.0737 -95.4670 260° West  Level Estimated
09:37PM 20.0574 -95.5648 260° West  Level Estimated
09:38PM 20.0410 -95.6627 260° West  Level Estimated
09:39PM 20.0247 -95.7605 260° West  Level Estimated
09:40PM 20.0082 -95.8584 260° West  Level Estimated
09:41PM 19.9917 -95.9562 260° West  Level Estimated
09:42PM 19.9752 -96.0539 260° West  Level Estimated
09:43PM 19.9586 -96.1517 260° West  Level Estimated
09:44PM 19.9419 -96.2494 260° West  Level Estimated
09:45PM 19.9252 -96.3472 260° West  Level Estimated
09:46PM 19.9084 -96.4449 260° West  Level Estimated
09:47PM 19.8916 -96.5425 260° West  Level Estimated
09:48PM 19.8747 -96.6402 260° West  Level Estimated
09:49PM 19.8578 -96.7378 260° West  Level Estimated
09:50PM 19.8408 -96.8355 260° West  Level Estimated
09:51PM 19.8238 -96.9331 260° West  Level Estimated
09:52PM 19.8067 -97.0306 259° West  Level Estimated
09:53PM 19.7896 -97.1282 259° West  Level Estimated
09:54PM 19.7724 -97.2257 259° West  Level Estimated
09:55PM 19.7551 -97.3232 259° West  Level Estimated
09:56PM 19.7379 -97.4207 259° West  Level Estimated
09:57PM 19.7205 -97.5182 259° West  Level Estimated
09:58PM 19.7031 -97.6156 259° West  Level Estimated
09:59PM 19.6856 -97.7131 259° West  Level Estimated
10:00PM 19.6681 -97.8104 259° West  Level Estimated
10:01PM 19.6506 -97.9078 259° West  Level Estimated
10:02PM 19.6330 -98.0052 259° West  Level Estimated
10:03PM 19.6153 -98.1025 259° West  Level Estimated
10:04PM 19.5976 -98.1999 259° West  Level Estimated
10:05PM 19.5798 -98.2971 259° West  Level Estimated
10:06PM 19.5620 -98.3944 259° West  Level Estimated
10:07PM 19.5441 -98.4917 259° West  Level Estimated
10:08PM 19.5262 -98.5889 259° West  Level Estimated
10:09PM 19.5082 -98.6861 259° West  Level Estimated
10:10PM 19.4902 -98.7833 259° West  Level Estimated
10:11PM 19.4721 -98.8805 259° West  Level Estimated
10:12PM 19.4540 -98.9776 259° West  Level Estimated
10:13PM 19.4363 -99.0721 259° West  Level Estimated
10:14PM 19.4363 -99.0721 43° Northeast  Level Estimated
10:15PM 19.4363 -99.0721 43° Northeast  Level Estimated
10:16PM 19.4363 -99.0721 43° Northeast  Level Estimated
10:17PM 19.4363 -99.0721 43° Northeast  Level Estimated
10:18PM 19.4363 -99.0721 43° Northeast  Level Estimated
10:19PM 19.4363 -99.0721 43° Northeast  Level Estimated
10:20PM 19.4363 -99.0721 43° Northeast  Level Estimated
10:21PM 19.4363 -99.0721 43° Northeast  Level Estimated
10:22PM 19.4363 -99.0721 43° Northeast  Level Estimated
10:23PM 19.4363 -99.0721 43° Northeast  Level Estimated
10:24PM 19.4363 -99.0721 43° Northeast  Level Estimated
10:25PM 19.4363 -99.0721 43° Northeast  Level Estimated
10:26PM 19.4363 -99.0721 43° Northeast  Level Estimated
10:27PM 19.4363 -99.0721 43° Northeast  Level Estimated
10:28PM 19.4363 -99.0721 43° Northeast  Level Estimated
10:29PM 19.4363 -99.0721 43° Northeast  Level Estimated